^^
Saratoga-Weather Station Historical Data
Daily Summary for September 16, 2021 Units:  English    Metric   Both
Daily Weekly Monthly Yearly Custom
  High: Low: Average:
Temperature: 67.8 °F 55.4 °F 62.4 °F
Dew Point: 61.7 °F 53.1 °F 56.1 °F
Humidity: 94% 60% 81%
Wind Speed: 8.1mph 0mph 1.5mph
Wind Gust: 11mph - -
Wind- - WSW
Pressure: 30.1 in 29.9 in -
Precipitation: 0 in    
Historical Graphs
 
 
Tabular Data for September 16, 2021
Time Temperature Dew Point Pressure Wind Wind Speed Wind Gust Humidity Rainfall Rate (Hourly) solar
00:00 63.5 °F 61.7 °F 29.9 in WSW 2 mph 2 mph 94% 0 in 0 W/m2
00:05 63.5 °F 61.7 °F 29.9 in WSW 2 mph 2 mph 94% 0 in 0 W/m2
00:10 63.3 °F 61.5 °F 29.9 in Calm     94% 0 in 0 W/m2
00:15 63.3 °F 61.5 °F 29.9 in WNW 2 mph 3 mph 94% 0 in 0 W/m2
00:20 63.3 °F 61.3 °F 29.9 in West 0.9 mph 3 mph 93% 0 in 0 W/m2
00:25 63.1 °F 61.2 °F 29.9 in West 0.9 mph 4 mph 93% 0 in 0 W/m2
00:30 63.1 °F 61.2 °F 29.9 in West 2 mph 4 mph 93% 0 in 0 W/m2
00:35 63 °F 60.6 °F 29.9 in Calm   2 mph 92% 0 in 0 W/m2
00:40 63 °F 61 °F 29.9 in West 2 mph 4 mph 93% 0 in 0 W/m2
00:45 62.8 °F 60.8 °F 29.9 in WSW 0.9 mph 2 mph 93% 0 in 0 W/m2
00:50 62.6 °F 60.6 °F 29.9 in Calm   2 mph 93% 0 in 0 W/m2
00:55 62.6 °F 60.6 °F 29.9 in West 2 mph 3 mph 93% 0 in 0 W/m2
01:00 62.4 °F 60.4 °F 29.9 in Calm   1 mph 93% 0 in 0 W/m2
01:05 62.4 °F 60.4 °F 29.9 in WSW 0.9 mph 3 mph 93% 0 in 0 W/m2
01:10 62.4 °F 60.4 °F 29.9 in WSW 2 mph 3 mph 93% 0 in 0 W/m2
01:15 62.2 °F 60.3 °F 29.9 in West 2 mph 3 mph 93% 0 in 0 W/m2
01:20 62.2 °F 60.3 °F 29.9 in West 2.9 mph 4 mph 93% 0 in 0 W/m2
01:25 62.2 °F 60.3 °F 29.9 in WSW 2 mph 4 mph 93% 0 in 0 W/m2
01:30 62.1 °F 60.1 °F 29.9 in West 2.9 mph 4 mph 93% 0 in 0 W/m2
01:35 62.1 °F 60.1 °F 29.9 in West 2.9 mph 6 mph 93% 0 in 0 W/m2
01:40 62.1 °F 60.1 °F 29.9 in West 2 mph 4 mph 93% 0 in 0 W/m2
01:46 61.9 °F 59.9 °F 29.9 in West 4 mph 6 mph 93% 0 in 0 W/m2
01:51 61.9 °F 59.9 °F 29.9 in West 2 mph 5 mph 93% 0 in 0 W/m2
01:56 62.1 °F 60.1 °F 29.9 in WSW 0.9 mph 2 mph 93% 0 in 0 W/m2
02:01 62.1 °F 60.1 °F 29.9 in WSW 0.9 mph 5 mph 93% 0 in 0 W/m2
02:06 61.9 °F 59.9 °F 29.9 in WSW 2 mph 4 mph 93% 0 in 0 W/m2
02:11 61.9 °F 59.9 °F 29.9 in WSW 0.9 mph 2 mph 93% 0 in 0 W/m2
02:16 61.7 °F 59.7 °F 29.9 in Calm   2 mph 93% 0 in 0 W/m2
02:21 61.5 °F 59.5 °F 29.9 in Calm   3 mph 93% 0 in 0 W/m2
02:26 61.5 °F 59.5 °F 29.9 in Calm     93% 0 in 0 W/m2
02:31 61.3 °F 59.4 °F 29.9 in Calm     93% 0 in 0 W/m2
02:36 61.3 °F 59.4 °F 29.9 in West 2 mph 2 mph 93% 0 in 0 W/m2
02:41 61.3 °F 59.4 °F 29.9 in Calm     93% 0 in 0 W/m2
02:46 61.3 °F 59.4 °F 29.9 in Calm     93% 0 in 0 W/m2
02:51 61.3 °F 59.4 °F 29.9 in Calm     93% 0 in 0 W/m2
02:56 61.3 °F 59.5 °F 29.9 in Calm     94% 0 in 0 W/m2
03:01 61.2 °F 59.2 °F 29.9 in Calm   1 mph 93% 0 in 0 W/m2
03:06 61.2 °F 59.2 °F 29.9 in Calm   1 mph 93% 0 in 0 W/m2
03:11 61.2 °F 59.2 °F 29.9 in Calm     93% 0 in 0 W/m2
03:16 61.3 °F 59.4 °F 29.9 in Calm     93% 0 in 0 W/m2
03:21 61.3 °F 59.4 °F 30 in Calm     93% 0 in 0 W/m2
03:26 61.3 °F 59.4 °F 30 in Calm     93% 0 in 0 W/m2
03:31 61.2 °F 59.2 °F 30 in Calm   1 mph 93% 0 in 0 W/m2
03:36 61.2 °F 59.2 °F 30 in West 0.9 mph 3 mph 93% 0 in 0 W/m2
03:41 61 °F 59 °F 30 in West 0.9 mph 2 mph 93% 0 in 0 W/m2
03:46 61 °F 59 °F 29.9 in WSW 0.9 mph 2 mph 93% 0 in 0 W/m2
03:51 60.8 °F 58.8 °F 29.9 in WSW 2 mph 2 mph 93% 0 in 0 W/m2
03:56 60.6 °F 58.6 °F 29.9 in WSW 2 mph 3 mph 93% 0 in 0 W/m2
04:01 60.6 °F 58.6 °F 29.9 in West 2.9 mph 3 mph 93% 0 in 0 W/m2
04:06 60.4 °F 58.5 °F 29.9 in WSW 0.9 mph 3 mph 93% 0 in 0 W/m2
04:11 60.4 °F 58.5 °F 29.9 in West 2 mph 2 mph 93% 0 in 0 W/m2
04:16 60.3 °F 58.3 °F 30 in WSW 2 mph 3 mph 93% 0 in 0 W/m2
04:21 60.3 °F 58.3 °F 30 in West 0.9 mph 2 mph 93% 0 in 0 W/m2
04:26 60.3 °F 58.3 °F 29.9 in West 0.9 mph 3 mph 93% 0 in 0 W/m2
04:31 60.3 °F 58.5 °F 29.9 in West 0.9 mph 2 mph 94% 0 in 0 W/m2
04:36 60.4 °F 58.6 °F 30 in WNW 0.9 mph 3 mph 94% 0 in 0 W/m2
04:41 60.4 °F 58.6 °F 30 in WNW 2 mph 2 mph 94% 0 in 0 W/m2
04:46 60.4 °F 58.6 °F 30 in WNW 2 mph 2 mph 94% 0 in 0 W/m2
04:51 60.4 °F 58.6 °F 30 in West 0.9 mph 2 mph 94% 0 in 0 W/m2
04:56 60.4 °F 58.6 °F 30 in West 0.9 mph 3 mph 94% 0 in 0 W/m2
05:01 60.4 °F 58.6 °F 30 in WNW 2 mph 3 mph 94% 0 in 0 W/m2
05:06 60.4 °F 58.5 °F 30 in West 2 mph 3 mph 93% 0 in 0 W/m2
05:11 60.4 °F 58.5 °F 30 in WNW 2 mph 3 mph 93% 0 in 0 W/m2
05:16 60.6 °F 58.6 °F 30 in WNW 2.9 mph 4 mph 93% 0 in 0 W/m2
05:21 60.6 °F 58.6 °F 30 in West 2 mph 2 mph 93% 0 in 0 W/m2
05:26 60.6 °F 58.6 °F 30 in WSW 0.9 mph 4 mph 93% 0 in 0 W/m2
05:31 60.6 °F 58.6 °F 30 in WNW 2.9 mph 4 mph 93% 0 in 0 W/m2
05:36 60.6 °F 58.6 °F 30 in West 2 mph 3 mph 93% 0 in 0 W/m2
05:41 60.6 °F 58.6 °F 30 in West 2 mph 4 mph 93% 0 in 0 W/m2
05:46 60.6 °F 58.6 °F 30 in WNW 2.9 mph 3 mph 93% 0 in 0 W/m2
05:51 60.4 °F 58.5 °F 30 in West 2.9 mph 3 mph 93% 0 in 0 W/m2
05:56 60.6 °F 58.6 °F 30 in West 0.9 mph 2 mph 93% 0 in 0 W/m2
06:01 60.6 °F 58.6 °F 30 in Calm   1 mph 93% 0 in 0 W/m2
06:07 60.4 °F 58.5 °F 30 in West 2 mph 4 mph 93% 0 in 0 W/m2
06:12 60.4 °F 58.5 °F 30 in WNW 2 mph 4 mph 93% 0 in 0 W/m2
06:17 60.4 °F 58.5 °F 30 in West 2 mph 6 mph 93% 0 in 0 W/m2
06:22 60.4 °F 58.5 °F 30 in WNW 2.9 mph 3 mph 93% 0 in 0 W/m2
06:27 60.4 °F 58.5 °F 30 in West 2 mph 5 mph 93% 0 in 0 W/m2
06:32 60.4 °F 58.5 °F 30 in WNW 2 mph 4 mph 93% 0 in 0 W/m2
06:37 60.4 °F 58.1 °F 30 in WNW 2 mph 4 mph 92% 0 in 0 W/m2
06:42 60.4 °F 58.1 °F 30 in West 4 mph 6 mph 92% 0 in 0 W/m2
06:47 60.3 °F 57.4 °F 30 in NW 2 mph 4 mph 90% 0 in 0 W/m2
06:52 60.3 °F 57.4 °F 30 in WNW 2.9 mph 3 mph 90% 0 in 0 W/m2
06:57 60.3 °F 57.4 °F 30 in WNW 0.9 mph 3 mph 90% 0 in 0 W/m2
07:02 60.1 °F 57.2 °F 30 in WSW 2.9 mph 3 mph 90% 0 in 0 W/m2
07:07 60.1 °F 57.2 °F 30 in NW 0.9 mph 4 mph 90% 0 in 0 W/m2
07:12 59.9 °F 57 °F 30 in WNW 2 mph 4 mph 90% 0 in 0 W/m2
07:17 59.7 °F 56.8 °F 30 in West 2 mph 3 mph 90% 0 in 0 W/m2
07:22 59.7 °F 56.8 °F 30 in WNW 2.9 mph 5 mph 90% 0 in 0 W/m2
07:27 59.7 °F 56.8 °F 30 in West 2 mph 3 mph 90% 0 in 0 W/m2
07:32 59.7 °F 56.8 °F 30 in West 2 mph 5 mph 90% 0 in 5 W/m2
07:37 59.7 °F 57 °F 30 in WNW 4 mph 4 mph 91% 0 in 9 W/m2
07:42 59.7 °F 57 °F 30 in NW 0.9 mph 4 mph 91% 0 in 12 W/m2
07:47 59.7 °F 57 °F 30 in WSW 0.9 mph 3 mph 91% 0 in 16 W/m2
07:52 59.5 °F 56.8 °F 30 in West 2 mph 5 mph 91% 0 in 19 W/m2
07:57 59.5 °F 56.7 °F 30 in WSW 2.9 mph 7 mph 90% 0 in 21 W/m2
08:02 59.4 °F 56.1 °F 30 in WSW 4 mph 4 mph 89% 0 in 23 W/m2
08:07 59.4 °F 56.1 °F 30 in WNW 2 mph 7 mph 89% 0 in 28 W/m2
08:12 59.4 °F 56.1 °F 30 in NW 2.9 mph 7 mph 89% 0 in 39 W/m2
08:17 59.2 °F 55.9 °F 30 in WSW 2.9 mph 6 mph 89% 0 in 44 W/m2
08:22 59.2 °F 55.9 °F 30 in WNW 0.9 mph 7 mph 89% 0 in 46 W/m2
08:27 59.2 °F 55.9 °F 30 in West 2 mph 3 mph 89% 0 in 40 W/m2
08:32 58.8 °F 55.6 °F 30 in NW 2 mph 3 mph 89% 0 in 35 W/m2
08:37 58.8 °F 55.6 °F 30 in NW 0.9 mph 2 mph 89% 0 in 51 W/m2
08:42 58.6 °F 55.4 °F 30 in NNW 0.9 mph 2 mph 89% 0 in 72 W/m2
08:47 58.6 °F 55.4 °F 30 in NW 0.9 mph 4 mph 89% 0 in 58 W/m2
08:52 58.6 °F 55 °F 30 in NW 0.9 mph 2 mph 88% 0 in 70 W/m2
08:57 59 °F 55.2 °F 30 in NNE 0.9 mph 3 mph 87% 0 in 211 W/m2
09:02 59.2 °F 55 °F 30 in NW 2.9 mph 4 mph 86% 0 in 232 W/m2
09:07 59.5 °F 55.4 °F 30 in NW 2 mph 4 mph 86% 0 in 244 W/m2
09:12 59.5 °F 54.7 °F 30 in WSW 2.9 mph 4 mph 84% 0 in 255 W/m2
09:17 59.7 °F 54.5 °F 30 in ENE 2.9 mph 3 mph 83% 0 in 264 W/m2
09:22 60.3 °F 55.4 °F 30 in Calm   1 mph 84% 0 in 279 W/m2
09:27 60.4 °F 55.2 °F 30 in Calm   2 mph 83% 0 in 290 W/m2
09:32 61 °F 55 °F 30 in ENE 0.9 mph 3 mph 81% 0 in 292 W/m2
09:37 61.5 °F 55.2 °F 30 in ENE 2 mph 3 mph 80% 0 in 320 W/m2
09:42 61.9 °F 55.2 °F 30 in Calm   4 mph 79% 0 in 316 W/m2
09:47 62.1 °F 55.4 °F 30 in NE 2 mph 3 mph 79% 0 in 246 W/m2
09:52 62.2 °F 54.9 °F 30 in NE 0.9 mph 3 mph 77% 0 in 301 W/m2
09:57 62.2 °F 54.9 °F 30 in NNW 0.9 mph 4 mph 77% 0 in 378 W/m2
10:02 62.1 °F 54.7 °F 30 in North 2.9 mph 5 mph 77% 0 in 67 W/m2
10:07 61.9 °F 54.9 °F 30 in West 4 mph 5 mph 78% 0 in 394 W/m2
10:12 61.7 °F 54.5 °F 30 in NE 0.9 mph 3 mph 77% 0 in 130 W/m2
10:17 61.9 °F 54.7 °F 30 in WSW 0.9 mph 6 mph 77% 0 in 362 W/m2
10:22 62.1 °F 54.7 °F 30 in NW 8.1 mph 8 mph 77% 0 in 455 W/m2
10:27 61.9 °F 54.7 °F 30 in NNE 2.9 mph 5 mph 77% 0 in 512 W/m2
10:32 62.2 °F 54.5 °F 30 in NNW 8 mph 8 mph 76% 0 in 547 W/m2
10:37 62.6 °F 54.9 °F 30 in WNW 0.9 mph 8 mph 76% 0 in 552 W/m2
10:42 62.4 °F 54.3 °F 30 in West 0.9 mph 4 mph 75% 0 in 200 W/m2
10:47 62.4 °F 54.7 °F 30 in ESE 2.9 mph 5 mph 76% 0 in 619 W/m2
10:52 63 °F 54.9 °F 30 in East 2 mph 9 mph 75% 0 in 628 W/m2
10:57 63.5 °F 55 °F 30 in NE 0.9 mph 4 mph 74% 0 in 661 W/m2
11:02 64 °F 54.9 °F 30 in ESE 4.9 mph 7 mph 72% 0 in 668 W/m2
11:07 64.2 °F 55 °F 30 in NNW 2.9 mph 7 mph 72% 0 in 193 W/m2
11:12 63.3 °F 54.1 °F 30 in West 2 mph 6 mph 72% 0 in 404 W/m2
11:17 62.8 °F 54.3 °F 30 in NE 0.9 mph 3 mph 74% 0 in 116 W/m2
11:22 62.4 °F 54.3 °F 30 in WNW 0.9 mph 6 mph 75% 0 in 127 W/m2
11:27 62.1 °F 54.3 °F 30 in WNW 2.9 mph 4 mph 76% 0 in 130 W/m2
11:32 61.9 °F 54.3 °F 30 in WNW 0.9 mph 6 mph 76% 0 in 151 W/m2
11:37 62.2 °F 54.5 °F 30 in WSW 4.9 mph 6 mph 76% 0 in 301 W/m2
11:42 62.8 °F 55 °F 30 in NNW 2 mph 9 mph 76% 0 in 703 W/m2
11:47 63.3 °F 54.9 °F 30 in WSW 2 mph 4 mph 74% 0 in 675 W/m2
11:52 64 °F 55.2 °F 30 in SW 0.9 mph 6 mph 73% 0 in 747 W/m2
11:57 64.4 °F 55.2 °F 30 in ENE 8.1 mph 8 mph 72% 0 in 791 W/m2
12:02 64.6 °F 54.5 °F 30 in ESE 0.9 mph 2 mph 70% 0 in 258 W/m2
12:07 64.6 °F 55 °F 30 in West 4 mph 5 mph 71% 0 in 202 W/m2
12:12 64.2 °F 54.3 °F 30 in WNW 0.9 mph 6 mph 70% 0 in 206 W/m2
12:17 64.2 °F 54.3 °F 30 in NE 2.9 mph 7 mph 70% 0 in 206 W/m2
12:23 64.8 °F 55.2 °F 30 in ESE 2 mph 6 mph 71% 0 in 199 W/m2
12:28 64.8 °F 54.3 °F 30 in SE 2 mph 4 mph 69% 0 in 257 W/m2
12:33 64.9 °F 54.9 °F 30 in West 2 mph 5 mph 70% 0 in 712 W/m2
12:38 65.1 °F 54.7 °F 30 in West 2 mph 5 mph 69% 0 in 751 W/m2
12:43 65.5 °F 55 °F 30 in Calm   3 mph 69% 0 in 163 W/m2
12:48 65.7 °F 54.3 °F 30 in ENE 0.9 mph 4 mph 67% 0 in 744 W/m2
12:53 66 °F 54.7 °F 30 in ENE 4.9 mph 5 mph 67% 0 in 793 W/m2
12:58 66.4 °F 54.7 °F 30 in ESE 2.9 mph 4 mph 66% 0 in 874 W/m2
13:03 66.6 °F 54.9 °F 30 in ESE 0.9 mph 6 mph 66% 0 in 916 W/m2
13:08 66.7 °F 54.7 °F 30 in NE 2 mph 4 mph 65% 0 in 243 W/m2
13:13 66.6 °F 54.9 °F 30 in Calm   6 mph 66% 0 in 248 W/m2
13:18 66.4 °F 54.7 °F 30 in West 2.9 mph 7 mph 66% 0 in 432 W/m2
13:23 66 °F 54.7 °F 30 in Calm   1 mph 67% 0 in 246 W/m2
13:28 66 °F 54.7 °F 30 in Calm   1 mph 67% 0 in 244 W/m2
13:33 66 °F 55.2 °F 30 in Calm   1 mph 68% 0 in 251 W/m2
13:38 66.4 °F 55.9 °F 30 in Calm   1 mph 69% 0 in 809 W/m2
13:43 66.6 °F 55.2 °F 30 in NE 0.9 mph 2 mph 67% 0 in 367 W/m2
13:48 66.6 °F 54.9 °F 30 in NNE 0.9 mph 4 mph 66% 0 in 221 W/m2
13:53 66.6 °F 54.9 °F 30 in SW 0.9 mph 2 mph 66% 0 in 174 W/m2
13:58 66.4 °F 54.7 °F 30 in Calm   3 mph 66% 0 in 171 W/m2
14:03 66.4 °F 54.7 °F 30 in Calm   3 mph 66% 0 in 185 W/m2
14:08 66.4 °F 54.3 °F 30 in WNW 2 mph 2 mph 65% 0 in 230 W/m2
14:13 66 °F 54.7 °F 30 in NNW 0.9 mph 2 mph 67% 0 in 329 W/m2
14:18 66 °F 54.7 °F 30 in West 2 mph 7 mph 67% 0 in 199 W/m2
14:23 65.8 °F 54.5 °F 30 in Calm   3 mph 67% 0 in 121 W/m2
14:28 65.7 °F 54.9 °F 30 in NW 2.9 mph 7 mph 68% 0 in 100 W/m2
14:33 65.5 °F 54.3 °F 30 in WNW 0.9 mph 7 mph 67% 0 in 104 W/m2
14:38 65.5 °F 54.7 °F 30 in NNW 0.9 mph 3 mph 68% 0 in 130 W/m2
14:43 65.5 °F 54.7 °F 30 in West 2.9 mph 7 mph 68% 0 in 183 W/m2
14:48 65.7 °F 54.9 °F 30 in Calm   1 mph 68% 0 in 241 W/m2
14:53 65.8 °F 55 °F 30 in West 2.9 mph 3 mph 68% 0 in 272 W/m2
14:58 65.8 °F 54.1 °F 30 in Calm   2 mph 66% 0 in 283 W/m2
15:03 66 °F 54.7 °F 30 in NNW 0.9 mph 4 mph 67% 0 in 281 W/m2
15:08 66.2 °F 54.5 °F 30 in West 0.9 mph 3 mph 66% 0 in 287 W/m2
15:13 66.2 °F 54.5 °F 30 in ENE 2 mph 4 mph 66% 0 in 306 W/m2
15:18 66.4 °F 55 °F 30 in NW 0.9 mph 3 mph 67% 0 in 179 W/m2
15:23 66.4 °F 55 °F 30 in NW 0.9 mph 6 mph 67% 0 in 135 W/m2
15:28 66.2 °F 54.5 °F 30 in WNW 2 mph 7 mph 66% 0 in 139 W/m2
15:33 65.8 °F 54.5 °F 30 in NW 4.9 mph 5 mph 67% 0 in 156 W/m2
15:38 65.8 °F 54.5 °F 30 in WNW 2 mph 5 mph 67% 0 in 171 W/m2
15:43 65.8 °F 55 °F 30 in NNW 2 mph 3 mph 68% 0 in 186 W/m2
15:48 66 °F 55.2 °F 30 in NW 2 mph 3 mph 68% 0 in 192 W/m2
15:53 65.8 °F 55 °F 30 in WSW 4.9 mph 7 mph 68% 0 in 190 W/m2
15:58 65.8 °F 55 °F 30 in NW 2 mph 4 mph 68% 0 in 163 W/m2
16:03 65.8 °F 55 °F 30 in West 4 mph 11 mph 68% 0 in 125 W/m2
16:08 65.5 °F 54.7 °F 30 in West 2.9 mph 7 mph 68% 0 in 113 W/m2
16:13 65.1 °F 54.7 °F 30 in West 0.9 mph 6 mph 69% 0 in 107 W/m2
16:18 65.1 °F 55 °F 30 in NNW 4 mph 4 mph 70% 0 in 111 W/m2
16:23 65.3 °F 54.9 °F 30 in WNW 2.9 mph 4 mph 69% 0 in 109 W/m2
16:28 65.1 °F 54.3 °F 30 in West 2.9 mph 6 mph 68% 0 in 105 W/m2
16:33 64.9 °F 54.1 °F 30 in WSW 2.9 mph 7 mph 68% 0 in 105 W/m2
16:38 64.9 °F 54.1 °F 30 in WNW 4 mph 6 mph 68% 0 in 102 W/m2
16:43 64.9 °F 54.1 °F 30 in NW 0.9 mph 4 mph 68% 0 in 128 W/m2
16:48 65.1 °F 54.7 °F 30 in WNW 0.9 mph 3 mph 69% 0 in 141 W/m2
16:53 65.1 °F 54.3 °F 30 in Calm   1 mph 68% 0 in 155 W/m2
16:58 65.5 °F 55 °F 30 in Calm   2 mph 69% 0 in 190 W/m2
17:03 65.8 °F 55.4 °F 30 in West 0.9 mph 2 mph 69% 0 in 188 W/m2
17:08 65.8 °F 55 °F 30 in West 2 mph 2 mph 68% 0 in 165 W/m2
17:13 65.8 °F 54.5 °F 30 in NNW 0.9 mph 6 mph 67% 0 in 227 W/m2
17:18 66.2 °F 54.9 °F 30 in West 0.9 mph 2 mph 67% 0 in 276 W/m2
17:23 66.7 °F 55 °F 30 in NNE 0.9 mph 3 mph 66% 0 in 380 W/m2
17:28 67.1 °F 54.1 °F 30 in WNW 2.9 mph 9 mph 63% 0 in 348 W/m2
17:33 66.9 °F 54 °F 30 in WNW 0.9 mph 3 mph 63% 0 in 211 W/m2
17:38 66.7 °F 54.1 °F 30 in WNW 4 mph 6 mph 64% 0 in 315 W/m2
17:44 66.7 °F 53.8 °F 30 in NNW 2 mph 7 mph 63% 0 in 332 W/m2
17:49 66.9 °F 54 °F 30 in WNW 2.9 mph 4 mph 63% 0 in 287 W/m2
17:54 66.9 °F 54.3 °F 30 in West 2.9 mph 4 mph 64% 0 in 251 W/m2
17:59 66.9 °F 53.4 °F 30 in NW 0.9 mph 4 mph 62% 0 in 141 W/m2
18:04 67.1 °F 53.6 °F 30 in NE 0.9 mph 3 mph 62% 0 in 139 W/m2
18:09 67.3 °F 53.8 °F 30 in North 4 mph 4 mph 62% 0 in 104 W/m2
18:14 67.5 °F 54 °F 30 in ENE 2 mph 2 mph 62% 0 in 220 W/m2
18:19 67.5 °F 54 °F 30 in WNW 2 mph 3 mph 62% 0 in 202 W/m2
18:24 67.8 °F 53.4 °F 30 in ESE 2 mph 3 mph 60% 0 in 211 W/m2
18:29 67.8 °F 54 °F 30 in ESE 0.9 mph 3 mph 61% 0 in 181 W/m2
18:34 67.8 °F 53.4 °F 30 in ESE 2 mph 3 mph 60% 0 in 162 W/m2
18:39 67.8 °F 54 °F 30 in Calm   2 mph 61% 0 in 62 W/m2
18:44 67.5 °F 53.6 °F 30 in SE 0.9 mph 3 mph 61% 0 in 123 W/m2
18:49 67.3 °F 55.6 °F 30 in Calm     66% 0 in 49 W/m2
18:54 66.6 °F 56.1 °F 30 in SSE 0.9 mph 1 mph 69% 0 in 40 W/m2
18:59 65.8 °F 54.5 °F 30 in Calm   2 mph 67% 0 in 40 W/m2
19:04 65.3 °F 54.9 °F 30 in Calm     69% 0 in 39 W/m2
19:09 64.9 °F 55.4 °F 30 in WNW 0.9 mph 2 mph 71% 0 in 26 W/m2
19:14 64.6 °F 54.1 °F 30 in Calm   3 mph 69% 0 in 23 W/m2
19:19 64.2 °F 54.7 °F 30 in West 0.9 mph 1 mph 71% 0 in 21 W/m2
19:24 63.9 °F 54.7 °F 30 in SW 0.9 mph 1 mph 72% 0 in 14 W/m2
19:29 63.5 °F 54.3 °F 30 in SW 0.9 mph 2 mph 72% 0 in 11 W/m2
19:34 63.1 °F 54.3 °F 30 in SW 0.9 mph 4 mph 73% 0 in 7 W/m2
19:39 63 °F 54.1 °F 30 in WSW 2 mph 3 mph 73% 0 in 5 W/m2
19:44 62.8 °F 54.3 °F 30 in WNW 2 mph 3 mph 74% 0 in 5 W/m2
19:49 62.8 °F 54.3 °F 30 in West 2 mph 2 mph 74% 0 in 0 W/m2
19:54 62.4 °F 54.3 °F 30 in West 2 mph 3 mph 75% 0 in 0 W/m2
19:59 62.2 °F 54.1 °F 30 in West 2.9 mph 4 mph 75% 0 in 0 W/m2
20:04 62.1 °F 54 °F 30 in West 2 mph 3 mph 75% 0 in 0 W/m2
20:09 62.1 °F 54.3 °F 30 in WSW 2 mph 4 mph 76% 0 in 0 W/m2
20:14 61.9 °F 54.3 °F 30 in West 2.9 mph 4 mph 76% 0 in 0 W/m2
20:19 61.9 °F 54.3 °F 30 in West 0.9 mph 2 mph 76% 0 in 0 W/m2
20:24 61.9 °F 54.3 °F 30 in Calm   4 mph 76% 0 in 0 W/m2
20:29 61.9 °F 54.7 °F 30 in Calm   2 mph 77% 0 in 0 W/m2
20:34 61.9 °F 54.7 °F 30 in WSW 2 mph 3 mph 77% 0 in 0 W/m2
20:39 61.7 °F 54.9 °F 30 in WSW 2 mph 2 mph 78% 0 in 0 W/m2
20:44 61.5 °F 54.7 °F 30 in Calm   2 mph 78% 0 in 0 W/m2
20:49 61.5 °F 54.7 °F 30 in West 0.9 mph 4 mph 78% 0 in 0 W/m2
20:54 61.3 °F 54.5 °F 30 in West 0.9 mph 2 mph 78% 0 in 0 W/m2
20:59 61.3 °F 54.9 °F 30 in Calm   4 mph 79% 0 in 0 W/m2
21:04 61.3 °F 54.9 °F 30 in Calm   1 mph 79% 0 in 0 W/m2
21:09 61.3 °F 54.9 °F 30 in Calm   1 mph 79% 0 in 0 W/m2
21:14 61.3 °F 55 °F 30 in Calm   1 mph 80% 0 in 0 W/m2
21:19 61.2 °F 54.9 °F 30 in West 0.9 mph 1 mph 80% 0 in 0 W/m2
21:24 61.2 °F 54.9 °F 30 in Calm   1 mph 80% 0 in 0 W/m2
21:29 61.2 °F 54.9 °F 30 in West 2 mph 2 mph 80% 0 in 0 W/m2
21:34 61.2 °F 55.2 °F 30 in Calm     81% 0 in 0 W/m2
21:39 61 °F 55 °F 30 in Calm     81% 0 in 0 W/m2
21:44 61 °F 55.4 °F 30 in Calm     82% 0 in 0 W/m2
21:49 60.8 °F 55.2 °F 30 in Calm     82% 0 in 0 W/m2
21:54 60.6 °F 55.4 °F 30 in Calm     83% 0 in 0 W/m2
21:59 60.4 °F 55.2 °F 30 in Calm     83% 0 in 0 W/m2
22:04 60.3 °F 55 °F 30 in Calm     83% 0 in 0 W/m2
22:09 59.9 °F 54.7 °F 30 in Calm     83% 0 in 0 W/m2
22:14 59.5 °F 54.3 °F 30 in Calm     83% 0 in 0 W/m2
22:19 59.4 °F 54.5 °F 30 in Calm     84% 0 in 0 W/m2
22:24 59 °F 54.5 °F 30 in Calm     85% 0 in 0 W/m2
22:29 58.6 °F 54.1 °F 30 in Calm     85% 0 in 0 W/m2
22:34 58.3 °F 54.1 °F 30 in Calm     86% 0 in 0 W/m2
22:39 57.7 °F 53.6 °F 30 in Calm     86% 0 in 0 W/m2
22:44 57.6 °F 53.8 °F 30 in Calm     87% 0 in 0 W/m2
22:49 57.4 °F 53.8 °F 30 in Calm     88% 0 in 0 W/m2
22:54 57 °F 53.4 °F 30 in Calm     88% 0 in 0 W/m2
22:59 56.8 °F 53.6 °F 30 in Calm     89% 0 in 0 W/m2
23:04 56.7 °F 53.4 °F 30 in Calm     89% 0 in 0 W/m2
23:09 56.7 °F 53.4 °F 30 in Calm     89% 0 in 0 W/m2
23:14 56.3 °F 53.4 °F 30 in Calm     90% 0 in 0 W/m2
23:19 56.1 °F 53.2 °F 30 in Calm     90% 0 in 0 W/m2
23:24 55.9 °F 53.4 °F 30 in Calm     91% 0 in 0 W/m2
23:30 55.9 °F 53.4 °F 30 in Calm     91% 0 in 0 W/m2
23:35 55.8 °F 53.2 °F 30 in Calm     91% 0 in 0 W/m2
23:40 55.6 °F 53.1 °F 30.1 in Calm     91% 0 in 0 W/m2
23:45 55.6 °F 53.2 °F 30 in Calm     92% 0 in 0 W/m2
23:50 55.6 °F 53.2 °F 30.1 in Calm     92% 0 in 0 W/m2
23:55 55.4 °F 53.1 °F 30 in Calm     92% 0 in 0 W/m2
Juneau County Weather
Compliments of Weather Underground - 4 mb